createdAt,value
2018-08-04T00:02:11.806Z,60.17
2018-08-04T00:04:41.660Z,60.90
2018-08-04T00:07:11.579Z,60.89
2018-08-04T00:09:41.504Z,59.85
2018-08-04T00:12:11.871Z,60.63
2018-08-04T00:14:41.753Z,61.57
2018-08-04T00:17:11.554Z,60.20
2018-08-04T00:19:41.391Z,60.55
2018-08-04T00:22:11.271Z,60.99
2018-08-04T00:24:41.236Z,60.70
2018-08-04T00:27:11.080Z,62.00
2018-08-04T00:29:40.929Z,62.61
2018-08-04T00:32:10.768Z,61.76
2018-08-04T00:34:40.723Z,61.15
2018-08-04T00:37:10.971Z,60.95
2018-08-04T00:39:40.859Z,60.68
2018-08-04T00:42:10.727Z,60.36
2018-08-04T00:44:40.632Z,60.91
2018-08-04T00:47:10.576Z,60.36
2018-08-04T00:49:40.487Z,61.46
2018-08-04T00:52:10.473Z,61.17
2018-08-04T00:54:40.376Z,61.57
2018-08-04T00:57:10.439Z,61.48
2018-08-04T00:59:40.392Z,60.90
2018-08-04T01:02:10.291Z,60.44
2018-08-04T01:04:40.196Z,61.04
2018-08-04T01:07:10.010Z,60.52
2018-08-04T01:09:40.131Z,60.78
2018-08-04T01:12:10.080Z,61.47
2018-08-04T01:14:39.896Z,60.75
2018-08-04T01:17:09.768Z,61.77
2018-08-04T01:19:39.802Z,60.90
2018-08-04T01:22:09.750Z,61.81
2018-08-04T01:24:39.668Z,60.93
2018-08-04T01:27:09.563Z,61.52
2018-08-04T01:29:39.464Z,61.30
2018-08-04T01:32:09.309Z,61.24
2018-08-04T01:34:39.177Z,61.74
2018-08-04T01:37:09.271Z,61.29
2018-08-04T01:39:39.263Z,61.37
2018-08-04T01:42:09.259Z,61.89
2018-08-04T01:44:39.085Z,62.03
2018-08-04T01:47:08.979Z,62.71
2018-08-04T01:49:38.880Z,62.76
2018-08-04T01:52:08.800Z,63.57
2018-08-04T01:54:38.848Z,62.17
2018-08-04T01:57:08.659Z,62.67
2018-08-04T01:59:38.606Z,62.44
2018-08-04T02:02:08.504Z,61.99
2018-08-04T02:04:38.449Z,62.08
2018-08-04T02:07:08.354Z,61.59
2018-08-04T02:09:38.315Z,62.25
2018-08-04T02:12:08.259Z,62.29
2018-08-04T02:14:38.284Z,62.51
2018-08-04T02:17:08.164Z,63.09
2018-08-04T02:19:38.063Z,62.74
2018-08-04T02:22:07.940Z,62.99
2018-08-04T02:24:37.911Z,61.64
2018-08-04T02:27:07.908Z,61.99
2018-08-04T02:29:37.877Z,61.86
2018-08-04T02:32:07.727Z,62.07
2018-08-04T02:34:37.608Z,61.54
2018-08-04T02:37:07.541Z,61.33
2018-08-04T02:39:37.345Z,61.74
2018-08-04T02:42:07.256Z,61.79
2018-08-04T02:44:37.226Z,62.46
2018-08-04T02:47:07.148Z,62.43
2018-08-04T02:49:37.003Z,62.45
2018-08-04T02:52:06.940Z,62.40
2018-08-04T02:54:36.822Z,62.61
2018-08-04T02:57:06.724Z,62.61
2018-08-04T02:59:36.645Z,63.24
2018-08-04T03:02:06.855Z,63.75
2018-08-04T03:04:36.899Z,63.35
2018-08-04T03:07:06.816Z,64.14
2018-08-04T03:09:36.674Z,63.48
2018-08-04T03:12:07.036Z,62.17
2018-08-04T03:14:36.850Z,62.30
2018-08-04T03:17:06.829Z,60.96
2018-08-04T03:19:36.648Z,60.34
2018-08-04T03:22:06.707Z,61.04
2018-08-04T03:24:36.613Z,59.76
2018-08-04T03:27:06.504Z,58.45
2018-08-04T03:29:36.455Z,57.97
2018-08-04T03:32:06.402Z,58.63
2018-08-04T03:34:36.447Z,58.65
2018-08-04T03:37:06.489Z,57.80
2018-08-04T03:39:36.623Z,58.01
2018-08-04T03:42:06.649Z,56.81
2018-08-04T03:44:36.564Z,57.81
2018-08-04T03:47:06.876Z,57.39
2018-08-04T03:49:36.738Z,58.15
2018-08-04T03:52:06.690Z,57.99
2018-08-04T03:54:36.649Z,58.18
2018-08-04T03:57:06.748Z,57.13
2018-08-04T03:59:36.604Z,57.16
2018-08-04T04:02:06.644Z,56.88
2018-08-04T04:04:36.568Z,57.78
2018-08-04T04:07:06.759Z,56.57
2018-08-04T04:09:36.749Z,56.71
2018-08-04T04:12:06.657Z,57.07
2018-08-04T04:14:36.536Z,56.51
2018-08-04T04:17:06.719Z,55.94
2018-08-04T04:19:36.844Z,56.72
2018-08-04T04:22:06.828Z,55.72
2018-08-04T04:24:36.775Z,55.80
2018-08-04T04:27:07.002Z,55.96
2018-08-04T04:29:43.243Z,56.92
2018-08-04T04:32:13.175Z,56.62
2018-08-04T04:34:43.125Z,56.42
2018-08-04T04:37:12.978Z,56.27
2018-08-04T04:39:42.941Z,56.16
2018-08-04T04:42:12.784Z,56.76
2018-08-04T04:44:42.600Z,56.33
2018-08-04T04:47:12.486Z,57.09
2018-08-04T04:49:42.634Z,56.53
2018-08-04T04:52:12.578Z,56.44
2018-08-04T04:54:42.507Z,57.05
2018-08-04T04:57:12.465Z,57.46
2018-08-04T04:59:42.312Z,59.97
2018-08-04T05:02:12.358Z,60.77
2018-08-04T05:04:42.237Z,61.41
2018-08-04T05:07:12.323Z,62.44
2018-08-04T05:09:42.135Z,63.02
2018-08-04T05:12:12.031Z,62.75
2018-08-04T05:14:42.111Z,63.66
2018-08-04T05:17:12.024Z,64.49
2018-08-04T05:19:42.025Z,64.34
2018-08-04T05:22:11.852Z,63.19
2018-08-04T05:24:41.805Z,62.17
2018-08-04T05:27:11.741Z,62.88
2018-08-04T05:29:41.682Z,61.89
2018-08-04T05:32:11.717Z,62.73
2018-08-04T05:34:41.646Z,62.30
2018-08-04T05:37:11.580Z,60.94
2018-08-04T05:39:41.584Z,59.44
2018-08-04T05:42:11.636Z,58.97
2018-08-04T05:44:41.584Z,59.04
2018-08-04T05:47:11.564Z,58.94
2018-08-04T05:49:41.424Z,57.94
2018-08-04T05:52:11.329Z,57.36
2018-08-04T05:54:41.459Z,57.73
2018-08-04T05:57:11.309Z,56.97
2018-08-04T05:59:41.114Z,57.37
2018-08-04T06:02:10.971Z,57.03
2018-08-04T06:04:40.848Z,56.25
2018-08-04T06:07:11.081Z,56.36
2018-08-04T06:09:47.240Z,57.11
2018-08-04T06:12:17.408Z,57.69
2018-08-04T06:14:47.347Z,57.56
2018-08-04T06:17:17.488Z,57.14
2018-08-04T06:19:47.491Z,57.25
2018-08-04T06:22:17.492Z,57.03
2018-08-04T06:24:47.549Z,57.00
2018-08-04T06:27:17.476Z,55.86
2018-08-04T06:29:47.465Z,56.82
2018-08-04T06:32:17.445Z,57.04
2018-08-04T06:34:47.340Z,57.84
2018-08-04T06:37:17.379Z,58.56
2018-08-04T06:39:47.271Z,59.00
2018-08-04T06:42:17.198Z,61.18
2018-08-04T06:44:47.055Z,61.80
2018-08-04T06:47:16.988Z,60.84
2018-08-04T06:49:46.965Z,59.81
2018-08-04T06:52:17.004Z,61.33
2018-08-04T06:54:47.112Z,62.58
2018-08-04T06:57:17.187Z,62.54
2018-08-04T06:59:47.121Z,62.62
2018-08-04T07:02:17.205Z,62.81
2018-08-04T07:04:47.213Z,61.87
2018-08-04T07:07:17.118Z,61.58
2018-08-04T07:09:47.093Z,61.31
2018-08-04T07:12:17.003Z,59.36
2018-08-04T07:14:46.913Z,58.63
2018-08-04T07:17:16.958Z,59.22
2018-08-04T07:19:46.817Z,57.89
2018-08-04T07:22:17.004Z,58.90
2018-08-04T07:24:47.080Z,57.65
2018-08-04T07:27:17.053Z,57.87
2018-08-04T07:29:47.032Z,56.90
2018-08-04T07:32:17.278Z,57.38
2018-08-04T07:34:47.284Z,57.57
2018-08-04T07:37:17.305Z,56.70
2018-08-04T07:39:47.481Z,55.73
2018-08-04T07:42:17.436Z,55.15
2018-08-04T07:44:47.416Z,54.18
2018-08-04T07:47:17.459Z,53.59
2018-08-04T07:49:47.407Z,54.02
2018-08-04T07:52:17.536Z,52.78
2018-08-04T07:54:47.466Z,53.93
2018-08-04T07:57:17.776Z,53.14
2018-08-04T07:59:47.731Z,53.66
2018-08-04T08:02:17.523Z,49.62
2018-08-04T08:04:47.597Z,50.16
2018-08-04T08:07:18.965Z,49.01
2018-08-04T08:09:48.970Z,49.07
2018-08-04T08:12:19.060Z,50.75
2018-08-04T08:14:49.246Z,49.88
2018-08-04T08:17:19.201Z,50.11
2018-08-04T08:19:49.078Z,50.32
2018-08-04T08:22:18.947Z,49.43
2018-08-04T08:24:49.008Z,50.68
2018-08-04T08:27:19.128Z,48.54
2018-08-04T08:29:49.090Z,49.43
2018-08-04T08:32:19.013Z,48.90
2018-08-04T08:34:49.205Z,49.03
2018-08-04T08:37:19.149Z,48.46
2018-08-04T08:39:49.159Z,47.88
2018-08-04T08:42:19.188Z,48.28
2018-08-04T08:44:49.071Z,46.19
2018-08-04T08:47:19.129Z,44.61
2018-08-04T08:49:49.211Z,45.50
2018-08-04T08:52:19.227Z,44.96
2018-08-04T08:54:49.389Z,46.49
2018-08-04T08:57:19.393Z,46.25
2018-08-04T08:59:49.551Z,47.02
2018-08-04T09:02:19.460Z,45.80
2018-08-04T09:04:49.516Z,43.31
2018-08-04T09:07:19.464Z,44.11
2018-08-04T09:09:49.403Z,43.41
2018-08-04T09:12:19.296Z,44.75
2018-08-04T09:14:50.062Z,43.54
2018-08-04T09:17:19.961Z,44.63
2018-08-04T09:19:49.824Z,43.19
2018-08-04T09:22:19.672Z,42.33
2018-08-04T09:24:49.629Z,43.83
2018-08-04T09:27:19.585Z,42.44
2018-08-04T09:29:49.480Z,42.66
2018-08-04T09:32:19.338Z,42.47
2018-08-04T09:34:49.303Z,42.09
2018-08-04T09:37:19.359Z,42.63
2018-08-04T09:39:49.221Z,43.46
2018-08-04T09:42:19.110Z,42.91
2018-08-04T09:44:49.032Z,41.75
2018-08-04T09:47:18.969Z,42.02
2018-08-04T09:49:48.867Z,41.91
2018-08-04T09:52:18.847Z,43.04
2018-08-04T09:54:48.839Z,42.41
2018-08-04T09:57:18.695Z,43.33
2018-08-04T09:59:48.515Z,41.42
2018-08-04T10:02:26.460Z,41.66
2018-08-04T10:04:57.319Z,41.47
2018-08-04T10:07:27.255Z,40.44
2018-08-04T10:09:57.162Z,40.92
2018-08-04T10:12:27.155Z,41.03
2018-08-04T10:14:57.027Z,40.04
2018-08-04T10:17:26.819Z,40.41
2018-08-04T10:19:56.631Z,41.30
2018-08-04T10:22:26.615Z,39.56
2018-08-04T10:24:56.801Z,40.70
2018-08-04T10:27:26.880Z,39.76
2018-08-04T10:29:56.867Z,39.15
2018-08-04T10:32:26.872Z,38.74
2018-08-04T10:34:56.679Z,39.03
2018-08-04T10:37:26.496Z,39.02
2018-08-04T10:39:56.438Z,38.97
2018-08-04T10:42:26.400Z,39.49
2018-08-04T10:44:56.421Z,39.09
2018-08-04T10:47:26.343Z,39.19
2018-08-04T10:49:56.267Z,39.66
2018-08-04T10:52:26.443Z,39.94
2018-08-04T10:54:56.447Z,39.58
2018-08-04T10:57:26.310Z,40.15
2018-08-04T10:59:56.291Z,40.51
2018-08-04T11:02:26.319Z,40.21
2018-08-04T11:04:56.325Z,40.17
2018-08-04T11:07:26.208Z,40.78
2018-08-04T11:09:56.107Z,39.79
2018-08-04T11:12:26.144Z,40.41
2018-08-04T11:14:56.251Z,39.55
2018-08-04T11:17:26.284Z,39.79
2018-08-04T11:19:56.284Z,39.91
2018-08-04T11:22:26.307Z,39.91
2018-08-04T11:24:56.446Z,39.93
2018-08-04T11:27:26.439Z,40.28
2018-08-04T11:29:56.512Z,40.26
2018-08-04T11:32:26.784Z,40.96
2018-08-04T11:34:56.698Z,41.50
2018-08-04T11:37:26.942Z,41.09
2018-08-04T11:39:57.226Z,41.47
2018-08-04T11:42:27.271Z,40.96
2018-08-04T11:44:57.174Z,40.14
2018-08-04T11:47:27.180Z,41.06
2018-08-04T11:49:57.225Z,40.55
2018-08-04T11:52:27.199Z,40.50
2018-08-04T11:54:57.053Z,40.34
2018-08-04T11:57:27.168Z,41.27
2018-08-04T11:59:57.114Z,41.79
2018-08-04T12:02:27.339Z,40.96
2018-08-04T12:04:57.503Z,42.38
2018-08-04T12:07:27.514Z,41.97
2018-08-04T12:09:57.640Z,42.25
2018-08-04T12:12:27.649Z,42.61
2018-08-04T12:14:57.627Z,42.66
2018-08-04T12:17:27.476Z,42.61
2018-08-04T12:19:57.527Z,41.73
2018-08-04T12:22:27.532Z,41.61
2018-08-04T12:24:57.511Z,42.09
2018-08-04T12:27:27.460Z,40.84
2018-08-04T12:29:57.469Z,41.40
2018-08-04T12:32:27.553Z,40.48
2018-08-04T12:34:57.627Z,41.74
2018-08-04T12:37:27.667Z,41.46
2018-08-04T12:39:57.592Z,40.96
2018-08-04T12:42:27.618Z,41.86
2018-08-04T12:44:57.547Z,41.81
2018-08-04T12:47:27.528Z,41.72
2018-08-04T12:49:57.996Z,41.95
2018-08-04T12:52:28.041Z,41.24
2018-08-04T12:54:58.387Z,40.85
2018-08-04T12:57:28.397Z,42.13
2018-08-04T12:59:58.472Z,41.44
2018-08-04T13:02:28.603Z,41.25
2018-08-04T13:04:58.604Z,40.24
2018-08-04T13:07:28.423Z,41.05
2018-08-04T13:09:58.510Z,41.33
2018-08-04T13:12:28.522Z,42.88
2018-08-04T13:14:58.452Z,42.30
2018-08-04T13:17:28.279Z,41.20
2018-08-04T13:19:58.255Z,42.77
2018-08-04T13:22:28.307Z,42.51
2018-08-04T13:24:58.179Z,41.78
2018-08-04T13:27:28.101Z,41.85
2018-08-04T13:29:58.053Z,42.16
2018-08-04T13:32:27.931Z,42.09
2018-08-04T13:34:58.006Z,42.55
2018-08-04T13:37:27.886Z,42.48
2018-08-04T13:39:57.739Z,43.07
2018-08-04T13:42:27.771Z,41.64
2018-08-04T13:44:57.756Z,42.42
2018-08-04T13:47:27.803Z,42.21
2018-08-04T13:49:58.308Z,41.36
2018-08-04T13:52:28.464Z,43.14
2018-08-04T13:54:58.278Z,41.95
2018-08-04T13:57:28.048Z,42.55
2018-08-04T13:59:58.011Z,41.27
2018-08-04T14:02:27.920Z,42.24
2018-08-04T14:04:58.024Z,41.81
2018-08-04T14:07:28.144Z,41.01
2018-08-04T14:09:58.111Z,41.75
2018-08-04T14:12:28.556Z,41.46
2018-08-04T14:14:58.815Z,40.87
2018-08-04T14:17:28.794Z,40.50
2018-08-04T14:19:58.796Z,41.48
2018-08-04T14:22:28.807Z,41.39
2018-08-04T14:24:58.954Z,40.74
2018-08-04T14:27:29.943Z,40.38
2018-08-04T14:30:00.029Z,40.99
2018-08-04T14:32:29.903Z,40.90
2018-08-04T14:35:00.349Z,40.46
2018-08-04T14:37:30.315Z,40.88
2018-08-04T14:40:00.581Z,40.78
2018-08-04T14:42:30.629Z,40.68
2018-08-04T14:45:00.864Z,41.63
2018-08-04T14:47:30.932Z,41.78
2018-08-04T14:50:01.030Z,41.44
2018-08-04T14:52:30.883Z,40.83
2018-08-04T14:55:01.092Z,40.72
2018-08-04T14:57:31.059Z,40.91
2018-08-04T15:00:00.883Z,41.85
2018-08-04T15:02:30.869Z,41.49
2018-08-04T15:05:01.035Z,40.96
2018-08-04T15:07:30.880Z,41.21
2018-08-04T15:10:00.758Z,40.90
2018-08-04T15:12:30.718Z,41.85
2018-08-04T15:15:00.704Z,42.12
2018-08-04T15:17:30.986Z,42.70
2018-08-04T15:20:01.192Z,42.69
2018-08-04T15:22:31.122Z,43.41
2018-08-04T15:25:01.325Z,43.29
2018-08-04T15:27:31.603Z,43.31
2018-08-04T15:30:01.748Z,42.61
2018-08-04T15:32:31.621Z,42.09
2018-08-04T15:35:01.888Z,42.17
2018-08-04T15:37:31.830Z,41.49
2018-08-04T15:40:01.771Z,42.28
2018-08-04T15:42:31.745Z,41.57
2018-08-04T15:45:01.675Z,43.11
2018-08-04T15:47:31.692Z,42.77
2018-08-04T15:50:01.729Z,42.91
2018-08-04T15:52:31.876Z,44.41
2018-08-04T15:55:01.808Z,44.06
2018-08-04T15:57:31.708Z,45.00
2018-08-04T16:00:01.930Z,43.87
2018-08-04T16:02:31.746Z,44.54
2018-08-04T16:05:01.820Z,44.24
2018-08-04T16:07:31.759Z,44.37
2018-08-04T16:10:01.696Z,44.70
2018-08-04T16:12:31.542Z,44.39
2018-08-04T16:15:01.410Z,44.79
2018-08-04T16:17:31.315Z,44.20
2018-08-04T16:20:01.167Z,43.98
2018-08-04T16:22:31.039Z,45.05
2018-08-04T16:25:01.019Z,44.06
2018-08-04T16:27:30.948Z,45.33
2018-08-04T16:30:00.947Z,45.21
2018-08-04T16:32:30.880Z,44.11
2018-08-04T16:35:00.964Z,43.67
2018-08-04T16:37:30.928Z,43.73
2018-08-04T16:40:00.909Z,44.27
2018-08-04T16:42:31.168Z,44.52
2018-08-04T16:45:01.381Z,44.81
2018-08-04T16:47:31.299Z,45.17
2018-08-04T16:50:01.175Z,44.39
2018-08-04T16:52:31.084Z,44.55
2018-08-04T16:55:01.036Z,44.49
2018-08-04T16:57:31.125Z,45.64
2018-08-04T17:00:01.210Z,45.69
2018-08-04T17:02:31.352Z,45.25
2018-08-04T17:05:01.269Z,45.48
2018-08-04T17:07:31.049Z,45.25
2018-08-04T17:10:01.004Z,46.09
2018-08-04T17:12:30.841Z,45.93
2018-08-04T17:15:00.814Z,45.66
2018-08-04T17:17:30.787Z,45.72
2018-08-04T17:20:00.658Z,45.59
2018-08-04T17:22:30.470Z,46.67
2018-08-04T17:25:00.352Z,46.07
2018-08-04T17:27:30.331Z,46.77
2018-08-04T17:30:00.192Z,46.89
2018-08-04T17:32:30.623Z,46.26
2018-08-04T17:35:00.496Z,46.66
2018-08-04T17:37:30.435Z,46.94
2018-08-04T17:40:00.242Z,46.66
2018-08-04T17:42:30.103Z,46.91
2018-08-04T17:44:59.890Z,46.49
2018-08-04T17:47:29.766Z,47.30
2018-08-04T17:49:59.887Z,46.70
2018-08-04T17:52:29.860Z,47.83
2018-08-04T17:54:59.819Z,46.99
2018-08-04T17:57:29.721Z,47.69
2018-08-04T17:59:59.872Z,47.03
2018-08-04T18:02:30.290Z,48.34
2018-08-04T18:05:01.493Z,47.35
2018-08-04T18:07:31.524Z,47.37
2018-08-04T18:10:02.278Z,47.20
2018-08-04T18:12:33.174Z,47.37
2018-08-04T18:15:03.025Z,48.43
2018-08-04T18:17:33.003Z,48.44
2018-08-04T18:20:02.836Z,48.23
2018-08-04T18:22:32.614Z,48.16
2018-08-04T18:25:02.355Z,47.68
2018-08-04T18:27:32.496Z,46.61
2018-08-04T18:30:02.421Z,47.21
2018-08-04T18:32:32.242Z,47.31
2018-08-04T18:35:02.136Z,47.14
2018-08-04T18:37:31.991Z,47.89
2018-08-04T18:40:01.798Z,48.47
2018-08-04T18:42:31.791Z,47.83
2018-08-04T18:45:01.651Z,49.49
2018-08-04T18:47:31.576Z,48.42
2018-08-04T18:50:01.541Z,49.88
2018-08-04T18:52:31.408Z,49.49
2018-08-04T18:55:01.375Z,50.46
2018-08-04T18:57:31.166Z,50.61
2018-08-04T19:00:01.032Z,51.08
2018-08-04T19:02:30.774Z,50.35
2018-08-04T19:05:00.683Z,50.58
2018-08-04T19:07:30.528Z,51.33
2018-08-04T19:10:00.353Z,51.46
2018-08-04T19:12:30.165Z,50.74
2018-08-04T19:14:59.932Z,51.61
2018-08-04T19:17:29.767Z,51.56
2018-08-04T19:19:59.564Z,53.63
2018-08-04T19:22:29.721Z,53.92
2018-08-04T19:24:59.535Z,51.32
2018-08-04T19:27:29.380Z,52.71
2018-08-04T19:29:59.318Z,53.31
2018-08-04T19:32:29.417Z,53.83
2018-08-04T19:34:59.274Z,53.28
2018-08-04T19:37:29.198Z,53.06
2018-08-04T19:39:59.038Z,53.52
2018-08-04T19:42:30.101Z,53.67
2018-08-04T19:45:00.169Z,52.68
2018-08-04T19:47:29.995Z,54.46
2018-08-04T19:49:59.807Z,53.54
2018-08-04T19:52:29.647Z,53.85
2018-08-04T19:54:59.566Z,53.60
2018-08-04T19:57:29.459Z,54.61
2018-08-04T19:59:59.392Z,53.86
2018-08-04T20:02:29.208Z,54.65
2018-08-04T20:04:59.120Z,55.39
2018-08-04T20:07:29.074Z,54.88
2018-08-04T20:09:58.944Z,55.28
2018-08-04T20:12:28.779Z,55.42
2018-08-04T20:14:58.868Z,55.44
2018-08-04T20:17:28.868Z,56.16
2018-08-04T20:19:58.682Z,56.81
2018-08-04T20:22:28.631Z,55.06
2018-08-04T20:24:58.522Z,56.17
2018-08-04T20:27:28.429Z,55.32
2018-08-04T20:29:58.394Z,55.22
2018-08-04T20:32:28.288Z,54.88
2018-08-04T20:34:58.164Z,56.38
2018-08-04T20:37:27.994Z,55.46
2018-08-04T20:39:57.820Z,55.62
2018-08-04T20:42:27.658Z,55.86
2018-08-04T20:44:57.584Z,55.92
2018-08-04T20:47:27.464Z,54.70
2018-08-04T20:49:57.425Z,55.05
2018-08-04T20:52:27.384Z,54.37
2018-08-04T20:54:57.344Z,55.21
2018-08-04T20:57:27.233Z,55.09
2018-08-04T20:59:56.997Z,55.44
2018-08-04T21:02:26.941Z,55.63
2018-08-04T21:04:56.758Z,54.86
2018-08-04T21:07:26.563Z,55.13
2018-08-04T21:09:56.376Z,55.27
2018-08-04T21:12:26.327Z,54.50
2018-08-04T21:14:56.320Z,55.34
2018-08-04T21:17:26.063Z,55.99
2018-08-04T21:19:56.043Z,55.52
2018-08-04T21:22:25.829Z,56.30
2018-08-04T21:24:55.750Z,57.60
2018-08-04T21:27:25.647Z,58.88
2018-08-04T21:29:55.540Z,58.81
2018-08-04T21:32:25.419Z,60.19
2018-08-04T21:34:55.251Z,57.20
2018-08-04T21:37:25.150Z,58.44
2018-08-04T21:39:55.113Z,57.22
2018-08-04T21:42:24.906Z,57.02
2018-08-04T21:44:54.808Z,56.49
2018-08-04T21:47:24.740Z,56.24
2018-08-04T21:49:54.672Z,56.60
2018-08-04T21:52:24.706Z,56.09
2018-08-04T21:54:54.693Z,55.77
2018-08-04T21:57:24.435Z,55.19
2018-08-04T21:59:54.411Z,54.57
2018-08-04T22:02:24.198Z,55.69
2018-08-04T22:04:54.215Z,56.02
2018-08-04T22:07:46.076Z,55.71
2018-08-04T22:10:16.320Z,55.67
2018-08-04T22:12:46.269Z,55.42
2018-08-04T22:15:16.810Z,55.21
2018-08-04T22:17:46.664Z,55.48
2018-08-04T22:20:17.679Z,55.85
2018-08-04T22:22:47.630Z,55.58
2018-08-04T22:25:19.743Z,55.48
2018-08-04T22:27:49.618Z,56.01
2018-08-04T22:30:20.708Z,55.12
2018-08-04T22:32:50.900Z,54.96
2018-08-04T22:35:20.926Z,55.27
2018-08-04T22:37:50.793Z,55.02
2018-08-04T22:40:21.665Z,54.60
2018-08-04T22:42:51.574Z,55.27
2018-08-04T22:46:24.851Z,56.53
2018-08-04T22:48:55.182Z,55.93
2018-08-04T22:51:26.930Z,56.45
2018-08-04T22:53:56.953Z,56.22
2018-08-04T22:56:27.066Z,56.21
2018-08-04T22:58:56.879Z,56.27
2018-08-04T23:01:26.682Z,56.84
2018-08-04T23:03:56.688Z,56.80
2018-08-04T23:06:26.486Z,56.55
2018-08-04T23:08:56.212Z,56.12
2018-08-04T23:11:26.191Z,55.75
2018-08-04T23:13:56.004Z,55.68
2018-08-04T23:16:25.878Z,56.62
2018-08-04T23:18:55.603Z,55.79
2018-08-04T23:21:25.452Z,55.69
2018-08-04T23:23:55.164Z,56.16
2018-08-04T23:26:24.951Z,55.81
2018-08-04T23:28:54.670Z,57.09
2018-08-04T23:31:24.551Z,56.12
2018-08-04T23:33:54.358Z,56.03
2018-08-04T23:36:24.194Z,56.86
2018-08-04T23:38:54.886Z,56.81
2018-08-04T23:41:24.708Z,56.95
2018-08-04T23:43:54.676Z,56.36
2018-08-04T23:46:24.479Z,56.89
2018-08-04T23:48:54.295Z,58.12
2018-08-04T23:51:24.124Z,57.60
2018-08-04T23:53:54.054Z,57.35
2018-08-04T23:56:24.388Z,56.43
2018-08-04T23:58:54.538Z,55.69
